UOOO 031500Z 17012MPS 2000 R19/P2000N -SN BLSN SCT046 M10/M12 Q1001 R19/810341 NOSIG RMK QFE734/0979
QNH:(hPa/inHg/mmHg)1001 / 29.56 / 751
QFE:(hPa/inHg/mmHg)980 / 28.93 / 735
Temperature-10
Dew Point-12
Visibility2000
WeatherLight Snow;Blowing Snow
Cloud CoverSCT (4600);
Transition Height1200 m./4600 ft.
Transition LevelFL70
SQUAWK